Latest Weather Observations for Rocky Gully South

IDW60801

Issued at 8:03 pm WST Wednesday 28 January 2015 (issued every 30 minutes, with the page automatically refreshed every 10 minutes)

About weather observations | Map of weather stations | Latest weather observations for WA | Other Formats
Station Details ID: 009964 Name: ROCKY GULLY Lat: -34.57 Lon: 117.01 Height: 250.0 m
Data from the previous 72 hours. | See also: Recent months at Rocky Gully South
Date/Time
WST
Temp
°C
App
Temp
°C
Dew
Point
Rel
Hum
%
Delta-T
°C
Wind Press
QNH
hPa
Press
MSL
hPa
Rain
since 9 am
mm
Dir
 
Spd
km/h
Gust
km/h
Spd
kts
Gust
kts
28/08:00pm 20.0 19.6 16.2 79 2.3 E 13 19 7 10 - - 10.6
28/07:30pm 19.5 19.5 16.3 82 1.9 ENE 11 17 6 9 - - 10.6
28/07:00pm 19.4 19.5 16.6 84 1.7 E 11 19 6 10 - - 10.6
28/06:30pm 18.8 21.2 16.9 89 1.2 CALM 0 7 0 4 - - 9.8
28/06:00pm 18.9 20.1 16.9 88 1.2 N 6 7 3 4 - - 8.2
28/05:30pm 18.5 19.2 16.1 86 1.4 E 7 11 4 6 - - 7.6
28/05:00pm 18.8 18.2 15.7 82 1.9 W 13 28 7 15 - - 7.4
28/04:30pm 21.4 20.5 16.8 75 2.8 S 17 24 9 13 - - 6.6
28/04:00pm 23.1 21.3 14.4 58 5.2 NNE 17 30 9 16 - - 4.6
28/03:58pm 24.2 21.7 13.4 51 6.4 NNE 19 30 10 16 - - 4.4
28/03:30pm 29.2 27.2 13.8 39 9.3 S 17 26 9 14 - - 2.0
28/03:00pm 31.2 28.7 11.1 29 11.7 SSE 15 32 8 17 - - 2.0
28/02:30pm 31.4 30.2 14.1 35 10.6 S 13 24 7 13 - - 2.0
28/02:28pm 31.5 30.3 15.0 36 10.2 S 15 28 8 15 - - 2.0
28/02:15pm 25.2 22.8 12.8 46 7.3 W 17 35 9 19 - - 1.8
28/02:09pm 30.2 26.8 10.7 30 11.3 NW 19 35 10 19 - - 0.8
28/02:00pm 35.4 33.7 5.8 16 16.2 S 4 7 2 4 - - 0.0
28/01:30pm 35.6 33.3 5.9 16 16.3 NW 7 11 4 6 - - 0.0
28/01:00pm 35.3 31.5 5.7 16 16.2 NNW 15 28 8 15 - - 0.0
28/12:30pm 36.6 32.8 5.8 15 17.0 N 15 28 8 15 - - 0.0
28/12:00pm 37.0 32.9 6.1 15 17.2 NNE 17 30 9 16 - - 0.0
28/11:30am 35.3 31.9 5.7 16 16.2 N 13 33 7 18 - - 0.0
28/11:00am 34.6 29.9 5.1 16 15.9 N 19 32 10 17 - - 0.0
28/10:30am 33.6 29.7 5.2 17 15.3 N 15 32 8 17 - - 0.0
28/10:00am 32.9 28.1 5.5 18 14.8 N 20 35 11 19 - - 0.0
28/09:30am 31.4 27.7 7.8 23 13.1 N 17 26 9 14 - - 0.0
28/09:00am 29.4 25.7 7.9 26 11.8 N 17 30 9 16 - - 0.0
28/08:30am 27.4 23.4 8.3 30 10.5 NNE 19 35 10 19 - - 0.0
28/08:00am 24.5 21.1 10.4 41 7.9 NNE 19 30 10 16 - - 0.0
28/07:30am 22.4 20.2 12.1 52 5.9 NNE 15 26 8 14 - - 0.0
28/07:00am 20.7 19.5 12.7 60 4.6 NNE 11 17 6 9 - - 0.0
28/06:30am 18.4 18.2 13.5 73 2.8 ENE 7 13 4 7 - - 0.0
28/06:00am 16.9 16.6 13.4 80 2.0 NE 7 11 4 6 - - 0.0
28/05:30am 16.1 16.5 13.6 85 1.4 ENE 4 7 2 4 - - 0.0
28/05:00am 15.9 15.7 13.7 87 1.3 E 7 11 4 6 - - 0.0
28/04:30am 16.0 15.9 13.8 87 1.3 E 7 11 4 6 - - 0.0
28/04:00am 15.6 15.3 13.3 86 1.3 ESE 7 11 4 6 - - 0.0
28/03:30am 15.8 15.4 13.1 84 1.5 E 7 11 4 6 - - 0.0
28/03:00am 16.4 16.2 13.1 81 1.9 E 6 9 3 5 - - 0.0
28/02:30am 17.0 17.3 13.3 79 2.1 ESE 4 7 2 4 - - 0.0
28/02:00am 17.3 17.2 13.4 78 2.2 E 6 11 3 6 - - 0.0
28/01:30am 17.3 17.5 13.2 77 2.3 E 4 9 2 5 - - 0.0
28/01:00am 17.4 17.2 13.1 76 2.4 E 6 9 3 5 - - 0.0
28/12:30am 17.9 18.3 12.6 71 3.0 ESE 2 11 1 6 - - 0.0
28/12:00am 18.9 18.7 13.1 69 3.3 E 6 9 3 5 - - 0.0
 
Date/Time
WST
Temp
°C
App
Temp
°C
Dew
Point
Rel
Hum
%
Delta-T
°C
Wind Press
QNH
hPa
Press
MSL
hPa
Rain
since 9 am
mm
Dir
 
Spd
km/h
Gust
km/h
Spd
kts
Gust
kts
27/11:30pm 19.4 18.9 12.7 65 3.8 E 7 11 4 6 - - 0.0
27/11:00pm 20.1 19.2 11.3 57 4.9 E 7 11 4 6 - - 0.0
27/10:30pm 21.0 19.7 9.9 49 6.1 E 7 17 4 9 - - 0.0
27/10:00pm 21.9 20.4 9.1 44 6.9 E 7 15 4 8 - - 0.0
27/09:30pm 22.8 20.8 8.5 40 7.7 E 9 20 5 11 - - 0.0
27/09:00pm 23.4 21.0 7.1 35 8.6 E 9 15 5 8 - - 0.0
27/08:30pm 24.3 21.7 6.1 31 9.4 E 9 15 5 8 - - 0.0
27/08:00pm 25.4 22.2 5.1 27 10.4 E 11 20 6 11 - - 0.0
27/07:30pm 26.6 23.0 5.0 25 11.1 ESE 13 20 7 11 - - 0.0
27/07:00pm 28.0 24.8 6.7 26 11.4 SE 13 24 7 13 - - 0.0
27/06:30pm 29.2 25.8 7.7 26 11.8 SE 15 28 8 15 - - 0.0
27/06:00pm 29.9 25.2 7.7 25 12.2 SE 22 35 12 19 - - 0.0
27/05:30pm 30.6 26.6 8.9 26 12.2 SSE 20 41 11 22 - - 0.0
27/05:00pm 32.1 27.7 9.0 24 13.1 SSE 22 35 12 19 - - 0.0
27/04:30pm 32.6 28.3 9.4 24 13.3 S 22 35 12 19 - - 0.0
27/04:00pm 33.8 30.7 3.6 15 15.9 S 9 17 5 9 - - 0.0
27/03:30pm 33.8 30.3 3.6 15 15.9 NW 11 17 6 9 - - 0.0
27/03:00pm 33.4 30.2 3.3 15 15.7 SE 9 15 5 8 - - 0.0
27/02:30pm 34.3 31.1 4.9 16 15.8 N 11 20 6 11 - - 0.0
27/02:00pm 33.9 31.4 4.6 16 15.7 ESE 7 15 4 8 - - 0.0
27/01:30pm 32.9 30.0 4.6 17 15.0 N 9 19 5 10 - - 0.0
27/01:00pm 32.8 29.5 4.6 17 15.0 SSE 11 19 6 10 - - 0.0
27/12:30pm 31.1 27.5 3.2 17 14.3 ENE 11 17 6 9 - - 0.0
27/12:00pm 30.6 27.3 6.5 22 13.0 NNE 13 20 7 11 - - 0.0
27/11:30am 30.3 27.6 7.5 24 12.5 N 11 24 6 13 - - 0.0
27/11:00am 28.9 26.0 8.0 27 11.5 N 13 19 7 10 - - 0.0
27/10:30am 28.0 25.6 8.8 30 10.7 N 11 20 6 11 - - 0.0
27/10:00am 26.4 24.0 8.8 33 9.7 NNE 11 17 6 9 - - 0.0
27/09:30am 24.4 21.4 9.2 38 8.3 N 15 24 8 13 - - 0.0
27/09:00am 23.2 20.8 9.9 43 7.3 NNE 13 20 7 11 - - 0.0
27/08:30am 21.5 19.3 10.9 51 5.9 NNE 13 20 7 11 - - 0.0
27/08:00am 19.8 18.1 12.3 62 4.2 NE 13 20 7 11 - - 0.0
27/07:30am 17.9 15.6 11.9 68 3.3 NNE 15 24 8 13 - - 0.0
27/07:00am 16.9 15.3 12.8 77 2.3 NE 13 20 7 11 - - 0.0
27/06:30am 15.4 14.7 13.1 86 1.3 NE 9 20 5 11 - - 0.0
27/06:00am 14.3 13.8 12.7 90 0.9 ENE 7 13 4 7 - - 0.0
27/05:30am 13.6 12.8 11.8 89 1.0 ENE 7 13 4 7 - - 0.0
27/05:00am 13.7 12.6 11.9 89 1.0 ENE 9 13 5 7 - - 0.0
27/04:30am 13.8 13.2 11.8 88 1.1 ENE 6 11 3 6 - - 0.0
27/04:00am 13.9 13.2 11.9 88 1.1 ENE 7 17 4 9 - - 0.0
27/03:30am 13.9 13.1 11.8 87 1.1 ENE 7 13 4 7 - - 0.0
27/03:00am 14.1 13.3 11.8 86 1.3 ENE 7 11 4 6 - - 0.0
27/02:30am 14.2 13.1 11.9 86 1.3 ENE 9 17 5 9 - - 0.0
27/02:00am 14.3 12.8 11.8 85 1.4 NE 11 19 6 10 - - 0.0
27/01:30am 14.4 12.8 11.7 84 1.5 ENE 11 20 6 11 - - 0.0
27/01:00am 14.5 12.5 11.6 83 1.6 ENE 13 20 7 11 - - 0.0
27/12:30am 14.7 12.7 11.5 81 1.7 E 13 26 7 14 - - 0.0
27/12:00am 14.9 12.5 11.3 79 1.9 ENE 15 24 8 13 - - 0.0
 
Date/Time
WST
Temp
°C
App
Temp
°C
Dew
Point
Rel
Hum
%
Delta-T
°C
Wind Press
QNH
hPa
Press
MSL
hPa
Rain
since 9 am
mm
Dir
 
Spd
km/h
Gust
km/h
Spd
kts
Gust
kts
26/11:30pm 15.2 13.6 11.4 78 2.1 ENE 11 17 6 9 - - 0.0
26/11:00pm 15.6 13.5 11.2 75 2.4 E 13 24 7 13 - - 0.0
26/10:30pm 16.0 14.2 10.7 71 2.9 ENE 11 20 6 11 - - 0.0
26/10:00pm 16.6 14.7 10.5 67 3.3 E 11 20 6 11 - - 0.0
26/09:30pm 17.4 14.7 10.5 64 3.7 E 15 24 8 13 - - 0.0
26/09:00pm 18.1 16.2 10.5 61 4.1 E 11 19 6 10 - - 0.0
26/08:30pm 18.8 16.9 10.4 58 4.6 E 11 20 6 11 - - 0.0
26/08:00pm 19.7 17.0 10.4 55 5.1 E 15 28 8 15 - - 0.0
26/07:30pm 21.0 18.3 10.2 50 5.9 E 15 28 8 15 - - 0.0
26/07:00pm 22.4 19.5 9.6 44 7.0 E 15 26 8 14 - - 0.0
26/06:30pm 23.8 20.1 9.4 40 7.9 E 19 32 10 17 - - 0.0
26/06:00pm 25.6 23.0 9.4 36 9.0 E 13 26 7 14 - - 0.0
26/05:30pm 26.1 22.3 9.0 34 9.4 E 19 32 10 17 - - 0.0
26/05:00pm 28.1 25.1 7.9 28 11.0 ENE 13 30 7 16 - - 0.0
26/04:30pm 29.0 25.7 4.5 21 12.7 E 11 19 6 10 - - 0.0
26/04:00pm 29.5 26.3 4.9 21 12.9 NNE 11 17 6 9 - - 0.0
26/03:30pm 29.4 26.1 4.8 21 12.9 ESE 11 20 6 11 - - 0.0
26/03:00pm 28.9 26.0 4.4 21 12.7 NNE 9 20 5 11 - - 0.0
26/02:30pm 28.7 25.6 5.5 23 12.2 E 11 24 6 13 - - 0.0
26/02:00pm 28.0 25.0 6.2 25 11.6 ENE 11 19 6 10 - - 0.0
26/01:30pm 27.1 24.2 6.5 27 10.9 ENE 11 19 6 10 - - 0.0
26/01:00pm 26.6 23.3 6.6 28 10.6 ESE 13 22 7 12 - - 0.0
26/12:30pm 25.5 22.7 7.1 31 9.8 ESE 11 24 6 13 - - 0.0
26/12:00pm 24.6 21.9 7.3 33 9.2 E 11 17 6 9 - - 0.0
26/11:30am 24.1 21.2 8.1 36 8.6 ENE 13 20 7 11 - - 0.0
26/11:00am 23.0 19.9 9.0 41 7.6 NE 15 22 8 12 - - 0.0
26/10:30am 21.5 18.7 8.4 43 7.0 E 13 24 7 13 - - 0.0
26/10:00am 21.4 18.6 8.7 44 6.8 E 13 24 7 13 - - 0.0
26/09:30am 19.7 16.1 8.4 48 5.9 NE 17 24 9 13 - - 0.0
26/09:00am 18.7 15.6 8.7 52 5.3 E 15 26 8 14 - - 0.0
26/08:30am 17.9 14.8 8.7 55 4.8 E 15 26 8 14 - - 0.0
26/08:00am 16.4 13.6 8.4 59 4.1 E 13 24 7 13 - - 0.0
26/07:30am 15.2 12.7 8.2 63 3.6 E 11 17 6 9 - - 0.0
26/07:00am 13.8 11.7 8.2 69 2.8 ESE 9 19 5 10 - - 0.0
26/06:30am 11.5 9.8 8.4 81 1.5 E 7 13 4 7 - - 0.0
26/06:00am 8.9 7.0 6.9 87 0.9 ESE 6 9 3 5 - - 0.0
26/05:30am 8.1 6.0 5.9 86 1.0 E 6 9 3 5 - - 0.0
26/05:00am 8.2 6.2 6.2 87 0.9 E 6 9 3 5 - - 0.0
26/04:30am 8.0 6.3 6.0 87 0.9 ESE 4 7 2 4 - - 0.0
26/04:00am 7.8 6.4 5.6 86 1.0 E 2 7 1 4 - - 0.0
26/03:30am 8.3 6.7 6.3 87 0.9 ESE 4 9 2 5 - - 0.0
26/03:00am 7.5 6.1 5.3 86 1.0 ESE 2 6 1 3 - - 0.0
26/02:30am 8.8 6.9 6.6 86 1.0 ESE 6 9 3 5 - - 0.0
26/02:00am 8.4 7.5 5.9 84 1.2 CALM 0 0 0 0 - - 0.0
26/01:30am 9.3 7.8 6.6 83 1.3 ESE 4 7 2 4 - - 0.0
26/01:00am 9.5 7.9 6.4 81 1.5 E 4 9 2 5 - - 0.0
26/12:30am 10.2 8.3 6.7 79 1.7 ESE 6 9 3 5 - - 0.0
26/12:00am 10.8 8.9 6.9 77 1.9 E 6 9 3 5 - - 0.0
 
Date/Time
WST
Temp
°C
App
Temp
°C
Dew
Point
Rel
Hum
%
Delta-T
°C
Wind Press
QNH
hPa
Press
MSL
hPa
Rain
since 9 am
mm
Dir
 
Spd
km/h
Gust
km/h
Spd
kts
Gust
kts
25/11:30pm 11.5 9.1 7.0 74 2.2 ESE 9 11 5 6 - - 0.0
25/11:00pm 12.0 9.6 7.1 72 2.4 ESE 9 17 5 9 - - 0.0
25/10:30pm 12.5 10.2 7.4 71 2.5 ESE 9 13 5 7 - - 0.0
25/10:00pm 13.1 10.5 7.8 70 2.6 ESE 11 20 6 11 - - 0.0
25/09:30pm 13.5 10.9 7.7 68 2.9 ESE 11 22 6 12 - - 0.0
25/09:00pm 14.0 11.1 8.0 67 3.0 SE 13 28 7 15 - - 0.0
25/08:30pm 14.6 11.6 7.9 64 3.4 SE 13 24 7 13 - - 0.0

Other Formats:

Comma delimited format used in spreadsheet applications
http://www.bom.gov.au/fwo/IDW60801/IDW60801.94631.axf

JavaScript Object Notation format (JSON) in row-major order
http://www.bom.gov.au/fwo/IDW60801/IDW60801.94631.json